createdAt,value
2023-03-11T00:00:28.608Z,2.72
2023-03-11T00:02:57.006Z,2.27
2023-03-11T00:05:29.718Z,2.21
2023-03-11T00:07:57.199Z,2.17
2023-03-11T00:10:29.411Z,2.15
2023-03-11T00:12:56.889Z,2.56
2023-03-11T00:15:23.425Z,2.16
2023-03-11T00:17:50.574Z,2.57
2023-03-11T00:20:28.617Z,2.26
2023-03-11T00:22:55.574Z,2.17
2023-03-11T00:25:24.184Z,2.12
2023-03-11T00:27:50.753Z,2.13
2023-03-11T00:30:18.645Z,2.05
2023-03-11T00:32:47.798Z,1.99
2023-03-11T00:35:17.113Z,2.43
2023-03-11T00:37:46.525Z,1.97
2023-03-11T00:40:15.695Z,2.40
2023-03-11T00:42:42.227Z,1.91
2023-03-11T00:45:10.869Z,1.89
2023-03-11T00:47:37.432Z,2.33
2023-03-11T00:50:05.126Z,2.33
2023-03-11T00:52:31.739Z,1.82
2023-03-11T00:55:01.209Z,2.21
2023-03-11T00:57:29.173Z,2.23
2023-03-11T00:59:55.996Z,1.75
2023-03-11T01:02:24.441Z,2.14
2023-03-11T01:04:56.884Z,2.17
2023-03-11T01:07:23.821Z,1.68
2023-03-11T01:09:50.330Z,1.64
2023-03-11T01:12:16.878Z,1.56
2023-03-11T01:14:43.531Z,2.03
2023-03-11T01:17:10.264Z,1.65
2023-03-11T01:19:36.825Z,1.60
2023-03-11T01:22:03.354Z,2.00
2023-03-11T01:24:29.926Z,2.02
2023-03-11T01:26:56.499Z,1.60
2023-03-11T01:29:24.564Z,1.62
2023-03-11T01:31:51.255Z,1.58
2023-03-11T01:34:17.968Z,1.97
2023-03-11T01:36:44.529Z,1.70
2023-03-11T01:39:11.152Z,1.62
2023-03-11T01:41:37.720Z,1.98
2023-03-11T01:44:05.102Z,2.08
2023-03-11T01:46:59.786Z,2.12
2023-03-11T01:49:30.727Z,2.14
2023-03-11T01:52:03.730Z,1.64
2023-03-11T01:54:41.415Z,1.65
2023-03-11T01:57:12.981Z,1.52
2023-03-11T01:59:44.926Z,1.55
2023-03-11T02:02:41.982Z,2.04
2023-03-11T02:05:09.276Z,2.08
2023-03-11T02:07:40.692Z,1.61
2023-03-11T02:10:11.840Z,2.01
2023-03-11T02:12:38.449Z,1.59
2023-03-11T02:15:07.319Z,1.60
2023-03-11T02:17:37.380Z,1.56
2023-03-11T02:20:29.731Z,2.01
2023-03-11T02:22:57.308Z,2.06
2023-03-11T02:25:43.978Z,1.64
2023-03-11T02:28:13.991Z,1.56
2023-03-11T02:30:43.227Z,1.57
2023-03-11T02:33:10.813Z,1.55
2023-03-11T02:35:37.601Z,1.43
2023-03-11T02:38:04.301Z,1.51
2023-03-11T02:40:41.614Z,1.96
2023-03-11T02:43:11.532Z,1.50
2023-03-11T02:45:41.052Z,1.92
2023-03-11T02:48:11.754Z,1.96
2023-03-11T02:50:39.941Z,1.55
2023-03-11T02:53:07.164Z,1.98
2023-03-11T02:55:33.842Z,2.04
2023-03-11T02:58:00.504Z,2.04
2023-03-11T03:00:27.669Z,1.55
2023-03-11T03:03:02.329Z,1.44
2023-03-11T03:05:28.947Z,1.85
2023-03-11T03:07:57.466Z,1.39
2023-03-11T03:10:24.185Z,1.31
2023-03-11T03:12:51.193Z,1.31
2023-03-11T03:15:17.775Z,1.68
2023-03-11T03:17:46.270Z,1.28
2023-03-11T03:20:14.756Z,1.33
2023-03-11T03:22:46.660Z,1.23
2023-03-11T03:25:16.309Z,1.73
2023-03-11T03:27:42.846Z,1.80
2023-03-11T03:30:10.095Z,1.32
2023-03-11T03:32:37.122Z,1.23
2023-03-11T03:35:05.787Z,1.75
2023-03-11T03:37:51.013Z,1.85
2023-03-11T03:40:17.916Z,1.87
2023-03-11T03:42:44.754Z,1.84
2023-03-11T03:45:11.576Z,1.43
2023-03-11T03:47:38.891Z,1.32
2023-03-11T03:50:07.957Z,1.30
2023-03-11T03:52:36.649Z,1.74
2023-03-11T03:55:04.246Z,1.78
2023-03-11T03:57:32.221Z,1.78
2023-03-11T03:59:58.838Z,1.70
2023-03-11T04:02:26.029Z,1.36
2023-03-11T04:04:54.178Z,1.35
2023-03-11T04:07:20.762Z,1.77
2023-03-11T04:09:47.304Z,1.28
2023-03-11T04:12:17.453Z,1.27
2023-03-11T04:14:44.639Z,1.28
2023-03-11T04:17:12.921Z,1.22
2023-03-11T04:19:39.977Z,1.14
2023-03-11T04:22:07.429Z,1.66
2023-03-11T04:24:34.237Z,1.73
2023-03-11T04:27:01.190Z,1.31
2023-03-11T04:29:27.786Z,1.22
2023-03-11T04:31:54.455Z,1.22
2023-03-11T04:34:21.346Z,1.69
2023-03-11T04:36:47.969Z,1.74
2023-03-11T04:39:16.449Z,1.26
2023-03-11T04:41:45.284Z,1.13
2023-03-11T04:44:16.351Z,1.58
2023-03-11T04:46:43.339Z,1.63
2023-03-11T04:49:10.559Z,1.64
2023-03-11T04:51:38.563Z,1.11
2023-03-11T04:54:06.247Z,1.52
2023-03-11T04:56:33.798Z,1.06
2023-03-11T04:59:00.647Z,1.50
2023-03-11T05:01:29.332Z,1.01
2023-03-11T05:03:58.337Z,1.43
2023-03-11T05:06:25.178Z,1.02
2023-03-11T05:08:52.074Z,0.94
2023-03-11T05:11:19.038Z,1.40
2023-03-11T05:13:47.614Z,1.42
2023-03-11T05:16:15.134Z,0.93
2023-03-11T05:18:41.701Z,1.34
2023-03-11T05:21:08.507Z,1.40
2023-03-11T05:23:36.909Z,1.42
2023-03-11T05:26:03.649Z,0.83
2023-03-11T05:28:31.571Z,1.31
2023-03-11T05:30:58.275Z,0.84
2023-03-11T05:33:25.252Z,0.77
2023-03-11T05:35:53.020Z,1.24
2023-03-11T05:38:21.030Z,0.83
2023-03-11T05:40:48.148Z,1.26
2023-03-11T05:43:14.712Z,0.75
2023-03-11T05:45:44.214Z,1.27
2023-03-11T05:48:10.960Z,1.34
2023-03-11T05:50:38.369Z,1.36
2023-03-11T05:53:05.512Z,1.36
2023-03-11T05:55:32.223Z,0.84
2023-03-11T05:57:59.754Z,0.81
2023-03-11T06:00:29.010Z,1.23
2023-03-11T06:02:57.922Z,1.32
2023-03-11T06:05:24.544Z,0.86
2023-03-11T06:07:53.147Z,0.79
2023-03-11T06:10:22.042Z,0.75
2023-03-11T06:12:48.692Z,0.72
2023-03-11T06:15:21.151Z,0.68
2023-03-11T06:17:48.061Z,1.12
2023-03-11T06:20:14.904Z,0.66
2023-03-11T06:22:42.448Z,0.68
2023-03-11T06:25:10.239Z,0.65
2023-03-11T06:27:38.875Z,1.08
2023-03-11T06:30:07.476Z,0.62
2023-03-11T06:32:40.537Z,1.05
2023-03-11T06:35:08.262Z,1.12
2023-03-11T06:37:36.970Z,1.16
2023-03-11T06:40:05.917Z,0.75
2023-03-11T06:42:32.557Z,0.65
2023-03-11T06:45:00.166Z,1.10
2023-03-11T06:47:27.147Z,1.14
2023-03-11T06:49:54.797Z,0.61
2023-03-11T06:52:21.372Z,1.03
2023-03-11T06:54:47.930Z,0.63
2023-03-11T06:57:16.962Z,0.63
2023-03-11T06:59:45.217Z,1.09
2023-03-11T07:02:14.922Z,0.73
2023-03-11T07:04:42.853Z,1.12
2023-03-11T07:07:09.415Z,0.72
2023-03-11T07:09:35.998Z,1.16
2023-03-11T07:12:06.424Z,1.21
2023-03-11T07:14:35.920Z,0.79
2023-03-11T07:17:02.690Z,0.83
2023-03-11T07:19:35.512Z,1.28
2023-03-11T07:22:02.086Z,1.30
2023-03-11T07:24:28.621Z,1.03
2023-03-11T07:26:55.124Z,1.00
2023-03-11T07:29:21.605Z,1.05
2023-03-11T07:31:49.108Z,1.01
2023-03-11T07:34:15.716Z,1.04
2023-03-11T07:36:43.122Z,1.12
2023-03-11T07:39:14.242Z,1.51
2023-03-11T07:41:41.044Z,1.58
2023-03-11T07:44:09.835Z,1.63
2023-03-11T07:46:36.461Z,1.33
2023-03-11T07:49:03.705Z,1.32
2023-03-11T07:51:33.198Z,1.30
2023-03-11T07:54:01.043Z,1.33
2023-03-11T07:56:30.599Z,1.35
2023-03-11T07:58:59.200Z,1.72
2023-03-11T08:01:27.308Z,1.44
2023-03-11T08:03:58.831Z,1.44
2023-03-11T08:06:29.319Z,1.47
2023-03-11T08:08:55.870Z,1.83
2023-03-11T08:11:22.534Z,1.56
2023-03-11T08:13:49.847Z,1.88
2023-03-11T08:16:19.261Z,1.64
2023-03-11T08:18:46.910Z,1.63
2023-03-11T08:21:15.961Z,1.65
2023-03-11T08:23:43.921Z,2.03
2023-03-11T08:26:13.519Z,2.09
2023-03-11T08:28:40.664Z,2.09
2023-03-11T08:31:15.658Z,1.88
2023-03-11T08:33:44.215Z,1.87
2023-03-11T08:36:11.010Z,1.88
2023-03-11T08:38:38.032Z,2.28
2023-03-11T08:41:05.459Z,2.35
2023-03-11T08:43:32.253Z,2.36
2023-03-11T08:46:03.419Z,2.16
2023-03-11T08:48:30.261Z,2.17
2023-03-11T08:50:56.904Z,2.21
2023-03-11T08:53:23.678Z,2.18
2023-03-11T08:55:51.590Z,2.28
2023-03-11T08:58:19.187Z,2.64
2023-03-11T09:00:46.210Z,2.68
2023-03-11T09:03:13.503Z,2.33
2023-03-11T09:05:40.198Z,2.41
2023-03-11T09:08:06.995Z,2.44
2023-03-11T09:10:33.565Z,2.44
2023-03-11T09:13:00.149Z,2.45
2023-03-11T09:15:26.661Z,2.52
2023-03-11T09:17:54.309Z,2.47
2023-03-11T09:20:21.074Z,2.61
2023-03-11T09:22:48.142Z,2.61
2023-03-11T09:25:15.550Z,2.68
2023-03-11T09:27:42.122Z,2.67
2023-03-11T09:30:10.498Z,2.67
2023-03-11T09:32:37.340Z,2.77
2023-03-11T09:35:04.474Z,3.15
2023-03-11T09:37:31.010Z,3.23
2023-03-11T09:39:58.147Z,2.94
2023-03-11T09:42:44.335Z,3.06
2023-03-11T09:45:18.595Z,3.36
2023-03-11T09:48:03.964Z,3.42
2023-03-11T09:50:49.027Z,3.24
2023-03-11T09:53:41.986Z,3.49
2023-03-11T09:56:16.899Z,3.10
2023-03-11T09:58:50.541Z,3.12
2023-03-11T10:01:28.973Z,3.18
2023-03-11T10:03:57.893Z,3.22
2023-03-11T10:06:28.772Z,3.22
2023-03-11T10:09:28.960Z,3.62
2023-03-11T10:12:10.755Z,3.29
2023-03-11T10:14:56.854Z,3.45
2023-03-11T10:17:41.638Z,3.37
2023-03-11T10:20:20.676Z,3.44
2023-03-11T10:23:17.792Z,3.76
2023-03-11T10:26:05.568Z,3.81
2023-03-11T10:29:16.758Z,3.88
2023-03-11T10:32:06.095Z,3.82
2023-03-11T10:34:43.682Z,3.92
2023-03-11T10:37:19.790Z,3.65
2023-03-11T10:39:49.426Z,3.61
2023-03-11T10:42:28.693Z,3.64
2023-03-11T10:44:55.256Z,4.01
2023-03-11T10:47:24.250Z,4.09
2023-03-11T10:52:11.345Z,3.91
2023-03-11T10:54:46.420Z,3.96
2023-03-11T10:57:28.141Z,4.28
2023-03-11T10:59:57.957Z,4.05
2023-03-11T11:02:52.681Z,3.91
2023-03-11T11:05:20.112Z,4.02
2023-03-11T11:07:48.696Z,4.06
2023-03-11T11:10:25.286Z,4.13
2023-03-11T11:12:51.828Z,4.06
2023-03-11T11:15:34.768Z,4.15
2023-03-11T11:18:17.302Z,4.03
2023-03-11T11:21:01.190Z,4.19
2023-03-11T11:23:38.648Z,4.11
2023-03-11T11:26:14.818Z,3.98
2023-03-11T11:28:41.409Z,4.12
2023-03-11T11:31:22.364Z,4.18
2023-03-11T11:33:53.885Z,4.09
2023-03-11T11:36:24.274Z,4.43
2023-03-11T11:38:56.424Z,4.04
2023-03-11T11:41:26.112Z,4.06
2023-03-11T11:43:59.917Z,4.08
2023-03-11T11:46:41.716Z,4.25
2023-03-11T11:49:20.635Z,4.19
2023-03-11T11:52:05.972Z,4.49
2023-03-11T11:54:58.861Z,4.48
2023-03-11T11:57:25.602Z,4.46
2023-03-11T11:59:52.152Z,4.46
2023-03-11T12:02:59.193Z,4.70
2023-03-11T12:05:35.834Z,4.66
2023-03-11T12:08:22.654Z,4.76
2023-03-11T12:11:02.634Z,4.78
2023-03-11T12:13:50.864Z,5.06
2023-03-11T12:16:44.360Z,5.16
2023-03-11T12:19:23.346Z,5.21
2023-03-11T12:22:07.870Z,5.36
2023-03-11T12:25:19.132Z,5.51
2023-03-11T12:27:51.990Z,5.41
2023-03-11T12:30:42.686Z,5.47
2023-03-11T12:33:19.546Z,5.52
2023-03-11T12:35:54.383Z,5.48
2023-03-11T12:38:36.571Z,5.58
2023-03-11T12:41:07.149Z,5.92
2023-03-11T12:43:33.868Z,5.62
2023-03-11T12:46:18.867Z,5.81
2023-03-11T12:48:49.599Z,5.78
2023-03-11T12:51:39.132Z,5.97
2023-03-11T12:54:32.209Z,6.05
2023-03-11T12:57:01.532Z,6.02
2023-03-11T13:00:01.881Z,6.36
2023-03-11T13:02:56.744Z,6.43
2023-03-11T13:05:51.042Z,6.48
2023-03-11T13:08:21.478Z,6.35
2023-03-11T13:10:56.034Z,6.38
2023-03-11T13:13:25.269Z,6.36
2023-03-11T13:15:52.673Z,6.48
2023-03-11T13:18:27.862Z,6.52
2023-03-11T13:20:57.276Z,6.61
2023-03-11T13:23:34.532Z,6.64
2023-03-11T13:26:18.007Z,6.78
2023-03-11T13:29:13.413Z,6.91
2023-03-11T13:32:15.444Z,6.98
2023-03-11T13:35:16.876Z,7.04
2023-03-11T13:38:20.660Z,7.00
2023-03-11T13:40:47.585Z,7.04
2023-03-11T13:43:20.116Z,7.22
2023-03-11T13:45:53.696Z,7.21
2023-03-11T13:48:28.126Z,7.38
2023-03-11T13:51:06.697Z,7.56
2023-03-11T13:53:42.937Z,7.61
2023-03-11T13:56:31.248Z,7.81
2023-03-11T13:59:28.011Z,7.73
2023-03-11T14:01:57.885Z,7.50
2023-03-11T14:04:29.848Z,7.57
2023-03-11T14:06:56.283Z,8.00
2023-03-11T14:09:26.049Z,7.39
2023-03-11T14:12:05.090Z,7.38
2023-03-11T14:14:47.700Z,7.31
2023-03-11T14:17:17.609Z,7.45
2023-03-11T14:20:02.256Z,7.78
2023-03-11T14:22:28.824Z,7.53
2023-03-11T14:24:57.510Z,7.62
2023-03-11T14:27:24.133Z,7.70
2023-03-11T14:29:50.721Z,7.55
2023-03-11T14:32:28.472Z,7.68
2023-03-11T14:34:55.464Z,7.84
2023-03-11T14:37:31.656Z,7.74
2023-03-11T14:39:58.350Z,7.68
2023-03-11T14:42:39.808Z,7.84
2023-03-11T14:45:16.890Z,7.81
2023-03-11T14:47:47.192Z,7.90
2023-03-11T14:50:18.069Z,7.98
2023-03-11T14:53:09.144Z,8.29
2023-03-11T14:55:51.044Z,8.31
2023-03-11T14:58:29.651Z,8.22
2023-03-11T15:01:21.042Z,8.18
2023-03-11T15:03:52.314Z,8.13
2023-03-11T15:06:23.124Z,8.27
2023-03-11T15:09:03.623Z,8.41
2023-03-11T15:11:30.180Z,8.46
2023-03-11T15:14:17.432Z,8.71
2023-03-11T15:16:44.064Z,8.69
2023-03-11T15:19:28.877Z,9.04
2023-03-11T15:21:59.572Z,8.88
2023-03-11T15:24:28.857Z,8.92
2023-03-11T15:27:04.439Z,8.72
2023-03-11T15:29:33.770Z,8.78
2023-03-11T15:32:00.833Z,8.87
2023-03-11T15:34:28.833Z,8.67
2023-03-11T15:36:59.895Z,8.69
2023-03-11T15:39:47.670Z,8.92
2023-03-11T15:42:19.311Z,9.05
2023-03-11T15:44:52.605Z,9.09
2023-03-11T15:47:23.379Z,9.03
2023-03-11T15:49:50.494Z,8.97
2023-03-11T15:52:19.216Z,9.03
2023-03-11T15:54:55.052Z,8.96
2023-03-11T15:57:28.028Z,8.98
2023-03-11T15:59:57.050Z,8.83
2023-03-11T16:02:27.474Z,8.89
2023-03-11T16:04:54.309Z,8.90
2023-03-11T16:07:36.557Z,8.97
2023-03-11T16:10:06.490Z,9.13
2023-03-11T16:12:33.268Z,9.17
2023-03-11T16:14:59.810Z,9.10
2023-03-11T16:17:28.600Z,8.98
2023-03-11T16:19:58.368Z,9.02
2023-03-11T16:22:32.871Z,9.16
2023-03-11T16:24:59.981Z,8.96
2023-03-11T16:27:27.816Z,8.78
2023-03-11T16:29:54.354Z,8.73
2023-03-11T16:32:21.247Z,8.69
2023-03-11T16:34:47.776Z,8.88
2023-03-11T16:37:16.368Z,8.78
2023-03-11T16:39:42.912Z,8.75
2023-03-11T16:42:09.780Z,8.68
2023-03-11T16:44:36.350Z,8.51
2023-03-11T16:47:02.851Z,8.44
2023-03-11T16:49:29.509Z,8.31
2023-03-11T16:51:56.019Z,8.24
2023-03-11T16:54:22.567Z,8.15
2023-03-11T16:56:49.086Z,8.08
2023-03-11T16:59:15.652Z,8.10
2023-03-11T17:01:42.285Z,8.12
2023-03-11T17:04:09.031Z,8.04
2023-03-11T17:06:35.607Z,8.18
2023-03-11T17:09:02.204Z,8.15
2023-03-11T17:11:30.652Z,8.04
2023-03-11T17:14:13.651Z,7.98
2023-03-11T17:16:42.577Z,7.99
2023-03-11T17:19:09.307Z,7.91
2023-03-11T17:21:36.019Z,7.93
2023-03-11T17:24:02.567Z,7.83
2023-03-11T17:26:31.026Z,7.84
2023-03-11T17:28:57.646Z,7.71
2023-03-11T17:31:24.227Z,7.73
2023-03-11T17:33:50.874Z,7.62
2023-03-11T17:36:18.171Z,7.62
2023-03-11T17:38:46.481Z,7.59
2023-03-11T17:41:16.139Z,7.53
2023-03-11T17:43:43.165Z,7.48
2023-03-11T17:46:12.224Z,7.45
2023-03-11T17:48:38.690Z,7.40
2023-03-11T17:51:07.727Z,7.37
2023-03-11T17:53:35.746Z,7.35
2023-03-11T17:56:02.616Z,7.35
2023-03-11T17:58:29.168Z,7.31
2023-03-11T18:00:55.736Z,7.28
2023-03-11T18:03:22.280Z,7.23
2023-03-11T18:05:59.566Z,7.27
2023-03-11T18:08:26.179Z,7.17
2023-03-11T18:10:54.707Z,7.06
2023-03-11T18:13:21.489Z,7.12
2023-03-11T18:15:59.930Z,7.15
2023-03-11T18:18:27.033Z,7.01
2023-03-11T18:20:53.599Z,6.99
2023-03-11T18:23:20.208Z,7.05
2023-03-11T18:25:52.799Z,6.99
2023-03-11T18:28:19.349Z,6.96
2023-03-11T18:30:46.206Z,6.95
2023-03-11T18:33:12.821Z,6.82
2023-03-11T18:35:39.395Z,6.88
2023-03-11T18:38:05.903Z,6.86
2023-03-11T18:40:32.417Z,6.84
2023-03-11T18:42:59.022Z,6.81
2023-03-11T18:45:25.524Z,6.84
2023-03-11T18:47:52.349Z,6.81
2023-03-11T18:50:20.021Z,6.75
2023-03-11T18:52:47.455Z,6.69
2023-03-11T18:55:14.020Z,6.56
2023-03-11T18:57:43.050Z,6.58
2023-03-11T19:00:10.331Z,6.55
2023-03-11T19:02:36.916Z,6.45
2023-03-11T19:05:04.367Z,6.51
2023-03-11T19:07:30.954Z,6.38
2023-03-11T19:09:57.503Z,6.43
2023-03-11T19:12:24.044Z,6.47
2023-03-11T19:14:50.538Z,6.41
2023-03-11T19:17:18.216Z,6.40
2023-03-11T19:19:44.894Z,6.38
2023-03-11T19:22:11.415Z,6.30
2023-03-11T19:24:38.366Z,6.33
2023-03-11T19:27:04.849Z,6.32
2023-03-11T19:29:31.423Z,6.28
2023-03-11T19:31:57.961Z,6.23
2023-03-11T19:34:24.574Z,6.17
2023-03-11T19:36:51.176Z,6.16
2023-03-11T19:39:17.726Z,6.14
2023-03-11T19:41:44.265Z,6.13
2023-03-11T19:44:10.856Z,6.11
2023-03-11T19:46:37.468Z,6.09
2023-03-11T19:49:04.431Z,6.10
2023-03-11T19:51:46.581Z,6.08
2023-03-11T19:54:16.266Z,5.93
2023-03-11T19:56:43.635Z,5.91
2023-03-11T19:59:10.208Z,5.88
2023-03-11T20:01:36.698Z,5.90
2023-03-11T20:04:04.068Z,5.72
2023-03-11T20:06:30.737Z,5.81
2023-03-11T20:08:57.261Z,5.87
2023-03-11T20:11:23.787Z,5.83
2023-03-11T20:13:50.391Z,5.82
2023-03-11T20:16:19.212Z,5.72
2023-03-11T20:18:49.180Z,5.78
2023-03-11T20:21:15.808Z,5.66
2023-03-11T20:23:42.348Z,5.59
2023-03-11T20:26:12.493Z,5.48
2023-03-11T20:28:39.314Z,5.53
2023-03-11T20:31:16.408Z,5.51
2023-03-11T20:33:43.615Z,5.52
2023-03-11T20:36:14.068Z,5.50
2023-03-11T20:38:41.663Z,5.53
2023-03-11T20:41:09.657Z,5.52
2023-03-11T20:43:40.591Z,5.57
2023-03-11T20:46:08.951Z,5.55
2023-03-11T20:48:36.861Z,5.54
2023-03-11T20:51:06.385Z,5.53
2023-03-11T20:53:33.371Z,5.49
2023-03-11T20:56:06.249Z,5.52
2023-03-11T20:58:32.852Z,5.51
2023-03-11T21:00:59.403Z,5.48
2023-03-11T21:03:26.138Z,5.49
2023-03-11T21:05:52.680Z,5.47
2023-03-11T21:08:19.153Z,5.47
2023-03-11T21:10:45.730Z,5.47
2023-03-11T21:13:12.353Z,5.42
2023-03-11T21:15:39.117Z,5.43
2023-03-11T21:18:06.976Z,5.44
2023-03-11T21:20:33.566Z,5.43
2023-03-11T21:23:00.128Z,5.41
2023-03-11T21:25:26.838Z,5.38
2023-03-11T21:27:53.377Z,5.36
2023-03-11T21:30:19.975Z,5.32
2023-03-11T21:32:46.753Z,5.27
2023-03-11T21:35:13.438Z,5.34
2023-03-11T21:37:40.050Z,5.32
2023-03-11T21:40:07.515Z,5.36
2023-03-11T21:42:34.210Z,5.34
2023-03-11T21:45:00.922Z,5.40
2023-03-11T21:47:27.616Z,5.42
2023-03-11T21:49:54.197Z,5.38
2023-03-11T21:52:20.818Z,5.38
2023-03-11T21:54:47.513Z,5.38
2023-03-11T21:57:14.293Z,5.44
2023-03-11T21:59:41.073Z,5.41
2023-03-11T22:02:13.898Z,5.41
2023-03-11T22:04:40.988Z,5.42
2023-03-11T22:07:07.780Z,5.37
2023-03-11T22:09:34.305Z,5.44
2023-03-11T22:12:01.011Z,5.38
2023-03-11T22:14:27.841Z,5.42
2023-03-11T22:16:54.472Z,5.45
2023-03-11T22:19:21.091Z,5.35
2023-03-11T22:21:49.008Z,5.43
2023-03-11T22:24:15.806Z,5.41
2023-03-11T22:26:42.277Z,5.39
2023-03-11T22:29:09.150Z,5.44
2023-03-11T22:31:35.902Z,5.37
2023-03-11T22:34:02.473Z,5.38
2023-03-11T22:36:28.964Z,5.29
2023-03-11T22:38:56.435Z,5.37
2023-03-11T22:41:23.039Z,5.36
2023-03-11T22:43:49.690Z,5.37
2023-03-11T22:46:16.316Z,5.33
2023-03-11T22:48:42.901Z,5.33
2023-03-11T22:51:09.851Z,5.30
2023-03-11T22:53:36.454Z,5.36
2023-03-11T22:56:11.370Z,5.36
2023-03-11T22:58:38.034Z,5.37
2023-03-11T23:01:05.722Z,5.30
2023-03-11T23:03:33.742Z,5.29
2023-03-11T23:06:02.054Z,5.26
2023-03-11T23:08:28.722Z,5.35
2023-03-11T23:10:55.333Z,5.28
2023-03-11T23:13:21.890Z,5.30
2023-03-11T23:15:49.530Z,5.29
2023-03-11T23:18:16.366Z,5.26
2023-03-11T23:20:44.522Z,5.26
2023-03-11T23:23:11.595Z,5.20
2023-03-11T23:25:39.291Z,5.22
2023-03-11T23:28:05.908Z,5.22
2023-03-11T23:30:33.197Z,5.21
2023-03-11T23:33:02.696Z,5.20
2023-03-11T23:35:29.813Z,5.26
2023-03-11T23:37:56.411Z,5.22
2023-03-11T23:40:23.037Z,5.24
2023-03-11T23:42:50.681Z,5.25
2023-03-11T23:45:17.366Z,5.26
2023-03-11T23:47:43.992Z,5.22
2023-03-11T23:50:10.765Z,5.18
2023-03-11T23:52:37.323Z,5.25
2023-03-11T23:55:04.341Z,5.12
2023-03-11T23:57:30.841Z,5.13
2023-03-11T23:59:57.461Z,5.06
